Portada
METAR-TAF:

METAR-TAF

Aeroports :

Erevan, Armènia

latitud: 40-08-50N, longitud: 044-23-45E, altitud: 865 m

Observació

L'informe es va fer fa 40 minuts, a les 07:00 UTC
Vent 5 kt del Sud, variant entre Est/Sud-Est i Sud-Oest
Temperatura 31°C
Humitat 33%
Pressió 1013 hPa
Visibilitat 10 km o més

METAR: UDYZ 200700Z 18005KT 120V220 9999 NSC 31/13 Q1013 R09/010070 NOSIG

Hora: 11:40 (07:40 UTC)

Pronòstic

L'informe es va fer fa 2 hores i 38 minuts, a les 05:02 UTC
Pronòstic vàlid del 20 a les 06 UTC al 21 a les 06 UTC
Vent 6 kt del Sud
Visibilitat 10 km o més
sense núvols per sota de 1500 mi sense presència de cumulonimbus.
Temporalment
l' 20 a les 12 UTC al 20 a les 24 UTC
Vent 26 kt del Nord-Est amb ràfegues de 36 kt

TAF: UDYZ 200502Z 2006/2106 19006KT CAVOK TEMPO 2012/2024 04026G36KT

Observacions i pronòstics meteorològics de més de 4000 aeroports (METAR i TAF).

Les estacions disponibles són els punts grocs i vermells al mapa.

Posi el ratolí al punt desitjat per veure el nom de l'estació.

Feu clic per veure les observacions i els pronòstics meteorològics.

Per canviar el mapa: feu clic els botons verds amb una creu de color negre per apropar; al botó verd amb un guió per allunyar la imatge; o en les fletxes verdes per a mapes adjacents.


METAR-TAF: